sensor_id;sensor_type;location;lat;lon;timestamp;temperature;humidity
55213;DHT22;41083;52.932;6.674;2023-06-24T00:00:58;17.90;99.90
55213;DHT22;41083;52.932;6.674;2023-06-24T00:03:24;17.90;99.90
55213;DHT22;41083;52.932;6.674;2023-06-24T00:05:49;17.80;99.90
55213;DHT22;41083;52.932;6.674;2023-06-24T00:08:16;17.80;99.90
55213;DHT22;41083;52.932;6.674;2023-06-24T00:10:45;17.70;99.90
55213;DHT22;41083;52.932;6.674;2023-06-24T00:13:12;17.70;99.90
55213;DHT22;41083;52.932;6.674;2023-06-24T00:15:38;17.60;99.90
55213;DHT22;41083;52.932;6.674;2023-06-24T00:18:11;17.60;99.90
55213;DHT22;41083;52.932;6.674;2023-06-24T00:20:37;17.60;99.90
55213;DHT22;41083;52.932;6.674;2023-06-24T00:23:03;17.60;99.90
55213;DHT22;41083;52.932;6.674;2023-06-24T00:25:29;17.50;99.90
55213;DHT22;41083;52.932;6.674;2023-06-24T00:27:55;17.50;99.90
55213;DHT22;41083;52.932;6.674;2023-06-24T00:30:21;17.50;99.90
55213;DHT22;41083;52.932;6.674;2023-06-24T00:32:47;17.40;99.90
55213;DHT22;41083;52.932;6.674;2023-06-24T00:35:12;17.50;99.90
55213;DHT22;41083;52.932;6.674;2023-06-24T00:37:38;17.40;99.90
55213;DHT22;41083;52.932;6.674;2023-06-24T00:40:05;17.40;99.90
55213;DHT22;41083;52.932;6.674;2023-06-24T00:42:31;17.30;99.90
55213;DHT22;41083;52.932;6.674;2023-06-24T00:44:57;17.30;99.90
55213;DHT22;41083;52.932;6.674;2023-06-24T00:47:22;17.30;99.90
55213;DHT22;41083;52.932;6.674;2023-06-24T00:49:49;17.20;99.90
55213;DHT22;41083;52.932;6.674;2023-06-24T00:52:16;17.20;99.90
55213;DHT22;41083;52.932;6.674;2023-06-24T00:54:45;17.20;99.90
55213;DHT22;41083;52.932;6.674;2023-06-24T00:57:11;17.20;99.90
55213;DHT22;41083;52.932;6.674;2023-06-24T00:59:37;17.10;99.90
55213;DHT22;41083;52.932;6.674;2023-06-24T01:02:04;17.10;99.90
55213;DHT22;41083;52.932;6.674;2023-06-24T01:04:30;17.00;99.90
55213;DHT22;41083;52.932;6.674;2023-06-24T01:06:59;17.00;99.90
55213;DHT22;41083;52.932;6.674;2023-06-24T01:09:25;16.90;99.90
55213;DHT22;41083;52.932;6.674;2023-06-24T01:11:51;17.00;99.90
55213;DHT22;41083;52.932;6.674;2023-06-24T01:14:17;16.90;99.90
55213;DHT22;41083;52.932;6.674;2023-06-24T01:17:05;16.90;99.90
55213;DHT22;41083;52.932;6.674;2023-06-24T01:22:09;16.80;99.90
55213;DHT22;41083;52.932;6.674;2023-06-24T01:30:09;16.80;99.90
55213;DHT22;41083;52.932;6.674;2023-06-24T01:32:45;16.80;99.90
55213;DHT22;41083;52.932;6.674;2023-06-24T01:35:16;16.70;99.90
55213;DHT22;41083;52.932;6.674;2023-06-24T01:37:48;16.70;99.90
55213;DHT22;41083;52.932;6.674;2023-06-24T01:40:27;16.70;99.90
55213;DHT22;41083;52.932;6.674;2023-06-24T01:42:54;16.60;99.90
55213;DHT22;41083;52.932;6.674;2023-06-24T01:45:25;16.60;99.90
55213;DHT22;41083;52.932;6.674;2023-06-24T01:48:14;16.50;99.90
55213;DHT22;41083;52.932;6.674;2023-06-24T01:53:35;16.50;99.90
55213;DHT22;41083;52.932;6.674;2023-06-24T01:56:05;16.50;99.90
55213;DHT22;41083;52.932;6.674;2023-06-24T01:58:33;16.50;99.90
55213;DHT22;41083;52.932;6.674;2023-06-24T02:01:02;16.50;99.90
55213;DHT22;41083;52.932;6.674;2023-06-24T02:03:28;16.40;99.90
55213;DHT22;41083;52.932;6.674;2023-06-24T02:05:56;16.50;99.90
55213;DHT22;41083;52.932;6.674;2023-06-24T02:08:24;16.40;99.90
55213;DHT22;41083;52.932;6.674;2023-06-24T02:10:51;16.40;99.90
55213;DHT22;41083;52.932;6.674;2023-06-24T02:13:18;16.40;99.90
55213;DHT22;41083;52.932;6.674;2023-06-24T02:15:45;16.30;99.90
55213;DHT22;41083;52.932;6.674;2023-06-24T02:18:14;16.30;99.90
55213;DHT22;41083;52.932;6.674;2023-06-24T02:20:41;16.30;99.90
55213;DHT22;41083;52.932;6.674;2023-06-24T02:23:11;16.30;99.90
55213;DHT22;41083;52.932;6.674;2023-06-24T02:25:37;16.30;99.90
55213;DHT22;41083;52.932;6.674;2023-06-24T02:28:08;16.30;99.90
55213;DHT22;41083;52.932;6.674;2023-06-24T02:30:38;16.30;99.90
55213;DHT22;41083;52.932;6.674;2023-06-24T02:33:04;16.30;99.90
55213;DHT22;41083;52.932;6.674;2023-06-24T02:35:30;16.30;99.90
55213;DHT22;41083;52.932;6.674;2023-06-24T02:37:58;16.30;99.90
55213;DHT22;41083;52.932;6.674;2023-06-24T02:40:24;16.30;99.90
55213;DHT22;41083;52.932;6.674;2023-06-24T02:42:50;16.20;99.90
55213;DHT22;41083;52.932;6.674;2023-06-24T02:45:16;16.30;99.90
55213;DHT22;41083;52.932;6.674;2023-06-24T02:47:44;16.20;99.90
55213;DHT22;41083;52.932;6.674;2023-06-24T02:50:11;16.20;99.90
55213;DHT22;41083;52.932;6.674;2023-06-24T02:52:40;16.20;99.90
55213;DHT22;41083;52.932;6.674;2023-06-24T02:55:06;16.10;99.90
55213;DHT22;41083;52.932;6.674;2023-06-24T02:57:33;16.10;99.90
55213;DHT22;41083;52.932;6.674;2023-06-24T03:00:02;16.10;99.90
55213;DHT22;41083;52.932;6.674;2023-06-24T03:02:31;16.10;99.90
55213;DHT22;41083;52.932;6.674;2023-06-24T03:04:57;16.00;99.90
55213;DHT22;41083;52.932;6.674;2023-06-24T03:07:24;16.00;99.90
55213;DHT22;41083;52.932;6.674;2023-06-24T03:09:51;16.00;99.90
55213;DHT22;41083;52.932;6.674;2023-06-24T03:12:17;16.00;99.90
55213;DHT22;41083;52.932;6.674;2023-06-24T03:14:42;16.00;99.90
55213;DHT22;41083;52.932;6.674;2023-06-24T03:17:09;16.00;99.90
55213;DHT22;41083;52.932;6.674;2023-06-24T03:19:34;16.00;99.90
55213;DHT22;41083;52.932;6.674;2023-06-24T03:22:00;16.00;99.90
55213;DHT22;41083;52.932;6.674;2023-06-24T03:24:25;15.90;99.90
55213;DHT22;41083;52.932;6.674;2023-06-24T03:26:51;15.90;99.90
55213;DHT22;41083;52.932;6.674;2023-06-24T03:29:24;15.90;99.90
55213;DHT22;41083;52.932;6.674;2023-06-24T03:31:50;15.90;99.90
55213;DHT22;41083;52.932;6.674;2023-06-24T03:34:16;15.90;99.90
55213;DHT22;41083;52.932;6.674;2023-06-24T03:36:44;15.90;99.90
55213;DHT22;41083;52.932;6.674;2023-06-24T03:39:10;15.90;99.90
55213;DHT22;41083;52.932;6.674;2023-06-24T03:41:35;15.90;99.90
55213;DHT22;41083;52.932;6.674;2023-06-24T03:44:01;15.90;99.90
55213;DHT22;41083;52.932;6.674;2023-06-24T03:46:27;15.90;99.90
55213;DHT22;41083;52.932;6.674;2023-06-24T03:48:58;15.90;99.90
55213;DHT22;41083;52.932;6.674;2023-06-24T03:51:24;15.90;99.90
55213;DHT22;41083;52.932;6.674;2023-06-24T03:53:49;15.90;99.90
55213;DHT22;41083;52.932;6.674;2023-06-24T03:56:16;15.90;99.90
55213;DHT22;41083;52.932;6.674;2023-06-24T03:58:42;15.90;99.90
55213;DHT22;41083;52.932;6.674;2023-06-24T04:01:09;15.90;99.90
55213;DHT22;41083;52.932;6.674;2023-06-24T04:03:35;15.90;99.90
55213;DHT22;41083;52.932;6.674;2023-06-24T04:06:00;15.90;99.90
55213;DHT22;41083;52.932;6.674;2023-06-24T04:08:27;15.90;99.90
55213;DHT22;41083;52.932;6.674;2023-06-24T04:10:59;15.90;99.90
55213;DHT22;41083;52.932;6.674;2023-06-24T04:13:29;15.90;99.90
55213;DHT22;41083;52.932;6.674;2023-06-24T04:15:55;15.90;99.90
55213;DHT22;41083;52.932;6.674;2023-06-24T04:18:20;16.00;99.90
55213;DHT22;41083;52.932;6.674;2023-06-24T04:20:46;16.00;99.90
55213;DHT22;41083;52.932;6.674;2023-06-24T04:23:12;15.90;99.90
55213;DHT22;41083;52.932;6.674;2023-06-24T04:25:40;16.00;99.90
55213;DHT22;41083;52.932;6.674;2023-06-24T04:28:06;16.10;99.90
55213;DHT22;41083;52.932;6.674;2023-06-24T04:30:32;16.10;99.90
55213;DHT22;41083;52.932;6.674;2023-06-24T04:32:58;16.10;99.90
55213;DHT22;41083;52.932;6.674;2023-06-24T04:35:24;16.20;99.90
55213;DHT22;41083;52.932;6.674;2023-06-24T04:37:50;16.20;99.90
55213;DHT22;41083;52.932;6.674;2023-06-24T04:40:17;16.30;99.90
55213;DHT22;41083;52.932;6.674;2023-06-24T04:42:44;16.30;99.90
55213;DHT22;41083;52.932;6.674;2023-06-24T04:45:10;16.40;99.90
55213;DHT22;41083;52.932;6.674;2023-06-24T04:47:35;16.40;99.90
55213;DHT22;41083;52.932;6.674;2023-06-24T04:50:02;16.50;99.90
55213;DHT22;41083;52.932;6.674;2023-06-24T04:52:27;16.50;99.90
55213;DHT22;41083;52.932;6.674;2023-06-24T04:54:53;16.50;99.90
55213;DHT22;41083;52.932;6.674;2023-06-24T04:57:30;16.60;99.90
55213;DHT22;41083;52.932;6.674;2023-06-24T04:59:56;16.60;99.90
55213;DHT22;41083;52.932;6.674;2023-06-24T05:02:22;16.60;99.90
55213;DHT22;41083;52.932;6.674;2023-06-24T05:04:48;16.70;99.90
55213;DHT22;41083;52.932;6.674;2023-06-24T05:07:14;16.70;99.90
55213;DHT22;41083;52.932;6.674;2023-06-24T05:09:39;16.70;99.90
55213;DHT22;41083;52.932;6.674;2023-06-24T05:12:06;16.80;99.90
55213;DHT22;41083;52.932;6.674;2023-06-24T05:14:34;16.80;99.90
55213;DHT22;41083;52.932;6.674;2023-06-24T05:16:59;16.80;99.90
55213;DHT22;41083;52.932;6.674;2023-06-24T05:19:25;16.80;99.90
55213;DHT22;41083;52.932;6.674;2023-06-24T05:21:51;16.90;99.90
55213;DHT22;41083;52.932;6.674;2023-06-24T05:24:16;17.00;99.90
55213;DHT22;41083;52.932;6.674;2023-06-24T05:26:42;17.00;99.90
55213;DHT22;41083;52.932;6.674;2023-06-24T05:29:07;17.00;99.90
55213;DHT22;41083;52.932;6.674;2023-06-24T05:31:33;17.00;99.90
55213;DHT22;41083;52.932;6.674;2023-06-24T05:33:58;17.10;99.90
55213;DHT22;41083;52.932;6.674;2023-06-24T05:36:24;17.10;99.90
55213;DHT22;41083;52.932;6.674;2023-06-24T05:38:49;17.10;99.90
55213;DHT22;41083;52.932;6.674;2023-06-24T05:41:15;17.10;99.90
55213;DHT22;41083;52.932;6.674;2023-06-24T05:43:43;17.20;99.90
55213;DHT22;41083;52.932;6.674;2023-06-24T05:46:08;17.20;99.90
55213;DHT22;41083;52.932;6.674;2023-06-24T05:48:34;17.20;99.90
55213;DHT22;41083;52.932;6.674;2023-06-24T05:51:00;17.20;99.90
55213;DHT22;41083;52.932;6.674;2023-06-24T05:53:25;17.30;99.90
55213;DHT22;41083;52.932;6.674;2023-06-24T05:55:51;17.40;99.90
55213;DHT22;41083;52.932;6.674;2023-06-24T05:58:16;17.40;99.90
55213;DHT22;41083;52.932;6.674;2023-06-24T06:00:42;17.40;99.90
55213;DHT22;41083;52.932;6.674;2023-06-24T06:03:08;17.50;99.90
55213;DHT22;41083;52.932;6.674;2023-06-24T06:05:34;17.50;99.90
55213;DHT22;41083;52.932;6.674;2023-06-24T06:08:00;17.50;99.90
55213;DHT22;41083;52.932;6.674;2023-06-24T06:10:25;17.60;99.90
55213;DHT22;41083;52.932;6.674;2023-06-24T06:12:51;17.60;99.90
55213;DHT22;41083;52.932;6.674;2023-06-24T06:15:18;17.70;99.90
55213;DHT22;41083;52.932;6.674;2023-06-24T06:17:45;17.70;99.90
55213;DHT22;41083;52.932;6.674;2023-06-24T06:20:11;17.70;99.90
55213;DHT22;41083;52.932;6.674;2023-06-24T06:22:37;17.80;99.90
55213;DHT22;41083;52.932;6.674;2023-06-24T06:25:06;17.90;99.90
55213;DHT22;41083;52.932;6.674;2023-06-24T06:27:32;17.90;99.90
55213;DHT22;41083;52.932;6.674;2023-06-24T06:29:58;18.00;99.90
55213;DHT22;41083;52.932;6.674;2023-06-24T06:32:24;18.10;99.90
55213;DHT22;41083;52.932;6.674;2023-06-24T06:34:49;18.20;99.90
55213;DHT22;41083;52.932;6.674;2023-06-24T06:37:15;18.70;99.90
55213;DHT22;41083;52.932;6.674;2023-06-24T06:39:41;19.70;99.90
55213;DHT22;41083;52.932;6.674;2023-06-24T06:42:06;20.90;99.90
55213;DHT22;41083;52.932;6.674;2023-06-24T06:44:32;22.00;99.90
55213;DHT22;41083;52.932;6.674;2023-06-24T06:46:58;23.00;99.90
55213;DHT22;41083;52.932;6.674;2023-06-24T06:49:23;23.80;99.20
55213;DHT22;41083;52.932;6.674;2023-06-24T06:51:49;24.60;98.40
55213;DHT22;41083;52.932;6.674;2023-06-24T06:54:14;24.90;97.90
55213;DHT22;41083;52.932;6.674;2023-06-24T06:56:40;24.60;98.20
55213;DHT22;41083;52.932;6.674;2023-06-24T06:59:06;24.00;98.50
55213;DHT22;41083;52.932;6.674;2023-06-24T07:01:31;23.50;99.50
55213;DHT22;41083;52.932;6.674;2023-06-24T07:03:57;23.00;99.90
55213;DHT22;41083;52.932;6.674;2023-06-24T07:06:22;22.60;99.90
55213;DHT22;41083;52.932;6.674;2023-06-24T07:08:48;22.30;99.90
55213;DHT22;41083;52.932;6.674;2023-06-24T07:11:14;22.00;99.90
55213;DHT22;41083;52.932;6.674;2023-06-24T07:13:39;21.90;99.90
55213;DHT22;41083;52.932;6.674;2023-06-24T07:16:05;21.80;99.90
55213;DHT22;41083;52.932;6.674;2023-06-24T07:18:30;21.60;99.90
55213;DHT22;41083;52.932;6.674;2023-06-24T07:20:56;21.60;99.90
55213;DHT22;41083;52.932;6.674;2023-06-24T07:23:22;21.50;99.90
55213;DHT22;41083;52.932;6.674;2023-06-24T07:25:48;21.50;99.90
55213;DHT22;41083;52.932;6.674;2023-06-24T07:28:14;21.40;99.90
55213;DHT22;41083;52.932;6.674;2023-06-24T07:30:40;21.40;99.90
55213;DHT22;41083;52.932;6.674;2023-06-24T07:33:07;21.40;99.90
55213;DHT22;41083;52.932;6.674;2023-06-24T07:35:33;21.40;99.90
55213;DHT22;41083;52.932;6.674;2023-06-24T07:37:59;21.50;99.90
55213;DHT22;41083;52.932;6.674;2023-06-24T07:40:25;21.60;99.90
55213;DHT22;41083;52.932;6.674;2023-06-24T07:42:51;21.70;99.90
55213;DHT22;41083;52.932;6.674;2023-06-24T07:45:16;21.80;99.90
55213;DHT22;41083;52.932;6.674;2023-06-24T07:47:42;21.90;99.90
55213;DHT22;41083;52.932;6.674;2023-06-24T07:50:08;22.00;99.90
55213;DHT22;41083;52.932;6.674;2023-06-24T07:52:36;22.00;99.90
55213;DHT22;41083;52.932;6.674;2023-06-24T07:55:02;22.00;99.90
55213;DHT22;41083;52.932;6.674;2023-06-24T07:57:28;22.00;99.90
55213;DHT22;41083;52.932;6.674;2023-06-24T07:59:54;22.00;99.90
55213;DHT22;41083;52.932;6.674;2023-06-24T08:02:20;21.90;99.90
55213;DHT22;41083;52.932;6.674;2023-06-24T08:04:45;21.90;99.90
55213;DHT22;41083;52.932;6.674;2023-06-24T08:07:11;21.90;99.90
55213;DHT22;41083;52.932;6.674;2023-06-24T08:09:37;22.00;99.90
55213;DHT22;41083;52.932;6.674;2023-06-24T08:12:03;22.00;99.90
55213;DHT22;41083;52.932;6.674;2023-06-24T08:14:28;22.00;99.90
55213;DHT22;41083;52.932;6.674;2023-06-24T08:16:54;22.10;99.90
55213;DHT22;41083;52.932;6.674;2023-06-24T08:19:20;22.10;99.90
55213;DHT22;41083;52.932;6.674;2023-06-24T08:21:45;22.20;99.70
55213;DHT22;41083;52.932;6.674;2023-06-24T08:24:11;22.20;99.40
55213;DHT22;41083;52.932;6.674;2023-06-24T08:26:37;22.20;99.30
55213;DHT22;41083;52.932;6.674;2023-06-24T08:29:02;22.20;99.30
55213;DHT22;41083;52.932;6.674;2023-06-24T08:31:28;22.30;99.00
55213;DHT22;41083;52.932;6.674;2023-06-24T08:33:54;22.20;99.00
55213;DHT22;41083;52.932;6.674;2023-06-24T08:36:21;22.30;99.00
55213;DHT22;41083;52.932;6.674;2023-06-24T08:38:48;22.30;98.80
55213;DHT22;41083;52.932;6.674;2023-06-24T08:41:14;22.40;98.60
55213;DHT22;41083;52.932;6.674;2023-06-24T08:43:39;22.50;98.50
55213;DHT22;41083;52.932;6.674;2023-06-24T08:46:06;22.60;98.50
55213;DHT22;41083;52.932;6.674;2023-06-24T08:48:33;22.60;98.30
55213;DHT22;41083;52.932;6.674;2023-06-24T08:51:07;22.70;97.80
55213;DHT22;41083;52.932;6.674;2023-06-24T08:53:36;22.90;97.40
55213;DHT22;41083;52.932;6.674;2023-06-24T08:56:03;22.90;97.00
55213;DHT22;41083;52.932;6.674;2023-06-24T08:58:28;23.00;96.90
55213;DHT22;41083;52.932;6.674;2023-06-24T09:00:54;23.10;96.70
55213;DHT22;41083;52.932;6.674;2023-06-24T09:03:22;23.10;96.50
55213;DHT22;41083;52.932;6.674;2023-06-24T09:05:47;23.10;96.30
55213;DHT22;41083;52.932;6.674;2023-06-24T09:08:14;23.10;96.10
55213;DHT22;41083;52.932;6.674;2023-06-24T09:10:41;23.10;96.00
55213;DHT22;41083;52.932;6.674;2023-06-24T09:13:07;23.20;96.00
55213;DHT22;41083;52.932;6.674;2023-06-24T09:15:36;23.20;95.90
55213;DHT22;41083;52.932;6.674;2023-06-24T09:18:03;23.20;95.80
55213;DHT22;41083;52.932;6.674;2023-06-24T09:20:33;23.30;95.90
55213;DHT22;41083;52.932;6.674;2023-06-24T09:23:04;23.30;95.60
55213;DHT22;41083;52.932;6.674;2023-06-24T09:25:31;23.30;95.30
55213;DHT22;41083;52.932;6.674;2023-06-24T09:28:03;23.30;95.40
55213;DHT22;41083;52.932;6.674;2023-06-24T09:30:29;23.30;95.20
55213;DHT22;41083;52.932;6.674;2023-06-24T09:32:55;23.30;95.00
55213;DHT22;41083;52.932;6.674;2023-06-24T09:35:23;23.30;94.90
55213;DHT22;41083;52.932;6.674;2023-06-24T09:37:55;23.30;95.00
55213;DHT22;41083;52.932;6.674;2023-06-24T09:40:22;23.30;94.70
55213;DHT22;41083;52.932;6.674;2023-06-24T09:45:14;23.30;94.80
55213;DHT22;41083;52.932;6.674;2023-06-24T09:47:40;23.30;94.40
55213;DHT22;41083;52.932;6.674;2023-06-24T09:50:05;23.30;94.20
55213;DHT22;41083;52.932;6.674;2023-06-24T09:52:33;23.30;94.00
55213;DHT22;41083;52.932;6.674;2023-06-24T09:55:01;23.40;93.70
55213;DHT22;41083;52.932;6.674;2023-06-24T09:57:29;23.50;93.50
55213;DHT22;41083;52.932;6.674;2023-06-24T09:59:58;23.50;93.40
55213;DHT22;41083;52.932;6.674;2023-06-24T10:02:24;23.60;93.00
55213;DHT22;41083;52.932;6.674;2023-06-24T10:04:51;23.70;92.40
55213;DHT22;41083;52.932;6.674;2023-06-24T10:07:17;23.70;91.70
55213;DHT22;41083;52.932;6.674;2023-06-24T10:09:43;23.60;91.30
55213;DHT22;41083;52.932;6.674;2023-06-24T10:12:09;23.60;90.90
55213;DHT22;41083;52.932;6.674;2023-06-24T10:14:35;23.50;91.20
55213;DHT22;41083;52.932;6.674;2023-06-24T10:17:04;23.40;91.40
55213;DHT22;41083;52.932;6.674;2023-06-24T10:19:30;23.50;90.90
55213;DHT22;41083;52.932;6.674;2023-06-24T10:22:02;23.50;90.80
55213;DHT22;41083;52.932;6.674;2023-06-24T10:24:35;23.50;90.20
55213;DHT22;41083;52.932;6.674;2023-06-24T10:27:09;23.50;88.70
55213;DHT22;41083;52.932;6.674;2023-06-24T10:29:38;23.40;89.70
55213;DHT22;41083;52.932;6.674;2023-06-24T10:32:05;23.30;89.30
55213;DHT22;41083;52.932;6.674;2023-06-24T10:37:04;23.40;89.40
55213;DHT22;41083;52.932;6.674;2023-06-24T10:42:36;23.50;86.90
55213;DHT22;41083;52.932;6.674;2023-06-24T10:47:41;23.70;87.50
55213;DHT22;41083;52.932;6.674;2023-06-24T10:50:11;23.80;87.80
55213;DHT22;41083;52.932;6.674;2023-06-24T10:52:41;23.80;87.30
55213;DHT22;41083;52.932;6.674;2023-06-24T10:55:08;23.80;86.60
55213;DHT22;41083;52.932;6.674;2023-06-24T10:57:34;23.70;87.00
55213;DHT22;41083;52.932;6.674;2023-06-24T11:00:01;23.70;87.90
55213;DHT22;41083;52.932;6.674;2023-06-24T11:02:27;23.80;88.00
55213;DHT22;41083;52.932;6.674;2023-06-24T11:04:54;24.00;87.60
55213;DHT22;41083;52.932;6.674;2023-06-24T11:07:24;24.00;86.90
55213;DHT22;41083;52.932;6.674;2023-06-24T11:09:51;24.00;87.00
55213;DHT22;41083;52.932;6.674;2023-06-24T11:12:17;24.00;87.00
55213;DHT22;41083;52.932;6.674;2023-06-24T11:14:42;24.00;86.50
55213;DHT22;41083;52.932;6.674;2023-06-24T11:17:09;24.10;85.70
55213;DHT22;41083;52.932;6.674;2023-06-24T11:19:35;24.10;85.60
55213;DHT22;41083;52.932;6.674;2023-06-24T11:22:05;24.10;85.50
55213;DHT22;41083;52.932;6.674;2023-06-24T11:24:31;24.30;84.60
55213;DHT22;41083;52.932;6.674;2023-06-24T11:26:56;24.20;83.60
55213;DHT22;41083;52.932;6.674;2023-06-24T11:29:23;24.10;83.50
55213;DHT22;41083;52.932;6.674;2023-06-24T11:31:49;24.00;84.10
55213;DHT22;41083;52.932;6.674;2023-06-24T11:34:16;24.00;84.50
55213;DHT22;41083;52.932;6.674;2023-06-24T11:36:42;23.90;84.10
55213;DHT22;41083;52.932;6.674;2023-06-24T11:39:07;23.80;84.10
55213;DHT22;41083;52.932;6.674;2023-06-24T11:41:33;23.70;84.40
55213;DHT22;41083;52.932;6.674;2023-06-24T11:43:59;23.70;84.40
55213;DHT22;41083;52.932;6.674;2023-06-24T11:46:26;23.60;84.40
55213;DHT22;41083;52.932;6.674;2023-06-24T11:48:52;23.50;84.50
55213;DHT22;41083;52.932;6.674;2023-06-24T11:51:18;23.50;84.20
55213;DHT22;41083;52.932;6.674;2023-06-24T11:53:44;23.50;84.30
55213;DHT22;41083;52.932;6.674;2023-06-24T11:56:11;23.50;83.80
55213;DHT22;41083;52.932;6.674;2023-06-24T11:58:37;23.40;83.30
55213;DHT22;41083;52.932;6.674;2023-06-24T12:01:03;23.50;83.40
55213;DHT22;41083;52.932;6.674;2023-06-24T12:03:32;23.50;83.70
55213;DHT22;41083;52.932;6.674;2023-06-24T12:05:59;23.50;84.40
55213;DHT22;41083;52.932;6.674;2023-06-24T12:08:25;23.60;84.40
55213;DHT22;41083;52.932;6.674;2023-06-24T12:10:52;23.70;84.60
55213;DHT22;41083;52.932;6.674;2023-06-24T12:13:18;23.80;84.40
55213;DHT22;41083;52.932;6.674;2023-06-24T12:15:43;23.90;84.60
55213;DHT22;41083;52.932;6.674;2023-06-24T12:18:09;23.90;84.50
55213;DHT22;41083;52.932;6.674;2023-06-24T12:20:35;23.90;84.50
55213;DHT22;41083;52.932;6.674;2023-06-24T12:23:02;23.90;84.20
55213;DHT22;41083;52.932;6.674;2023-06-24T12:25:29;23.90;84.50
55213;DHT22;41083;52.932;6.674;2023-06-24T12:27:54;24.00;84.40
55213;DHT22;41083;52.932;6.674;2023-06-24T12:30:20;24.10;84.80
55213;DHT22;41083;52.932;6.674;2023-06-24T12:32:51;24.10;84.70
55213;DHT22;41083;52.932;6.674;2023-06-24T12:35:17;24.20;84.30
55213;DHT22;41083;52.932;6.674;2023-06-24T12:37:43;24.20;84.30
55213;DHT22;41083;52.932;6.674;2023-06-24T12:40:10;24.30;84.20
55213;DHT22;41083;52.932;6.674;2023-06-24T12:42:36;24.30;83.70
55213;DHT22;41083;52.932;6.674;2023-06-24T12:45:02;24.30;83.00
55213;DHT22;41083;52.932;6.674;2023-06-24T12:47:28;24.30;82.80
55213;DHT22;41083;52.932;6.674;2023-06-24T12:49:53;24.30;83.10
55213;DHT22;41083;52.932;6.674;2023-06-24T12:52:19;24.30;82.70
55213;DHT22;41083;52.932;6.674;2023-06-24T12:54:44;24.20;82.90
55213;DHT22;41083;52.932;6.674;2023-06-24T12:57:10;24.30;82.60
55213;DHT22;41083;52.932;6.674;2023-06-24T12:59:36;24.20;82.60
55213;DHT22;41083;52.932;6.674;2023-06-24T13:02:02;24.20;83.00
55213;DHT22;41083;52.932;6.674;2023-06-24T13:04:28;24.20;83.30
55213;DHT22;41083;52.932;6.674;2023-06-24T13:06:53;24.10;83.30
55213;DHT22;41083;52.932;6.674;2023-06-24T13:09:19;24.10;83.50
55213;DHT22;41083;52.932;6.674;2023-06-24T13:11:45;24.10;83.70
55213;DHT22;41083;52.932;6.674;2023-06-24T13:14:11;24.10;83.40
55213;DHT22;41083;52.932;6.674;2023-06-24T13:16:37;24.20;83.10
55213;DHT22;41083;52.932;6.674;2023-06-24T13:19:03;24.20;83.00
55213;DHT22;41083;52.932;6.674;2023-06-24T13:21:29;24.40;83.40
55213;DHT22;41083;52.932;6.674;2023-06-24T13:23:54;24.30;84.00
55213;DHT22;41083;52.932;6.674;2023-06-24T13:26:20;24.60;84.90
55213;DHT22;41083;52.932;6.674;2023-06-24T13:28:46;24.70;84.50
55213;DHT22;41083;52.932;6.674;2023-06-24T13:31:12;24.90;83.90
55213;DHT22;41083;52.932;6.674;2023-06-24T13:33:37;25.00;83.50
55213;DHT22;41083;52.932;6.674;2023-06-24T13:36:04;25.10;82.80
55213;DHT22;41083;52.932;6.674;2023-06-24T13:38:32;25.10;82.30
55213;DHT22;41083;52.932;6.674;2023-06-24T13:40:57;25.10;82.30
55213;DHT22;41083;52.932;6.674;2023-06-24T13:43:23;25.10;82.40
55213;DHT22;41083;52.932;6.674;2023-06-24T13:45:48;25.10;82.60
55213;DHT22;41083;52.932;6.674;2023-06-24T13:48:14;25.10;82.70
55213;DHT22;41083;52.932;6.674;2023-06-24T13:50:39;25.00;81.70
55213;DHT22;41083;52.932;6.674;2023-06-24T13:53:05;25.00;81.00
55213;DHT22;41083;52.932;6.674;2023-06-24T13:55:31;25.00;81.20
55213;DHT22;41083;52.932;6.674;2023-06-24T13:57:57;25.10;81.70
55213;DHT22;41083;52.932;6.674;2023-06-24T14:00:23;25.10;79.90
55213;DHT22;41083;52.932;6.674;2023-06-24T14:02:48;25.10;79.90
55213;DHT22;41083;52.932;6.674;2023-06-24T14:05:14;25.10;79.40
55213;DHT22;41083;52.932;6.674;2023-06-24T14:07:39;25.10;79.20
55213;DHT22;41083;52.932;6.674;2023-06-24T14:10:05;25.10;79.40
55213;DHT22;41083;52.932;6.674;2023-06-24T14:12:31;25.10;79.50
55213;DHT22;41083;52.932;6.674;2023-06-24T14:14:57;25.10;79.30
55213;DHT22;41083;52.932;6.674;2023-06-24T14:17:23;25.10;79.20
55213;DHT22;41083;52.932;6.674;2023-06-24T14:19:49;25.10;79.40
55213;DHT22;41083;52.932;6.674;2023-06-24T14:22:15;25.20;79.30
55213;DHT22;41083;52.932;6.674;2023-06-24T14:24:43;25.20;78.50
55213;DHT22;41083;52.932;6.674;2023-06-24T14:27:09;25.20;77.70
55213;DHT22;41083;52.932;6.674;2023-06-24T14:29:35;25.20;77.50
55213;DHT22;41083;52.932;6.674;2023-06-24T14:32:00;25.20;77.50
55213;DHT22;41083;52.932;6.674;2023-06-24T14:34:26;25.20;78.10
55213;DHT22;41083;52.932;6.674;2023-06-24T14:36:55;25.20;78.00
55213;DHT22;41083;52.932;6.674;2023-06-24T14:39:20;25.20;78.10
55213;DHT22;41083;52.932;6.674;2023-06-24T14:41:46;25.20;78.10
55213;DHT22;41083;52.932;6.674;2023-06-24T14:44:12;25.20;77.20
55213;DHT22;41083;52.932;6.674;2023-06-24T14:46:37;25.30;77.00
55213;DHT22;41083;52.932;6.674;2023-06-24T14:49:03;25.30;76.70
55213;DHT22;41083;52.932;6.674;2023-06-24T14:51:28;25.30;76.10
55213;DHT22;41083;52.932;6.674;2023-06-24T14:53:54;25.20;76.10
55213;DHT22;41083;52.932;6.674;2023-06-24T14:56:20;25.20;76.20
55213;DHT22;41083;52.932;6.674;2023-06-24T14:58:45;25.20;76.10
55213;DHT22;41083;52.932;6.674;2023-06-24T15:01:11;25.30;76.20
55213;DHT22;41083;52.932;6.674;2023-06-24T15:03:36;25.30;76.30
55213;DHT22;41083;52.932;6.674;2023-06-24T15:06:02;25.30;76.60
55213;DHT22;41083;52.932;6.674;2023-06-24T15:08:27;25.30;77.00
55213;DHT22;41083;52.932;6.674;2023-06-24T15:10:53;25.20;77.30
55213;DHT22;41083;52.932;6.674;2023-06-24T15:13:19;25.10;76.90
55213;DHT22;41083;52.932;6.674;2023-06-24T15:15:44;25.20;76.90
55213;DHT22;41083;52.932;6.674;2023-06-24T15:18:11;25.10;77.80
55213;DHT22;41083;52.932;6.674;2023-06-24T15:20:36;25.10;77.30
55213;DHT22;41083;52.932;6.674;2023-06-24T15:23:02;25.00;77.30
55213;DHT22;41083;52.932;6.674;2023-06-24T15:25:28;25.00;77.50
55213;DHT22;41083;52.932;6.674;2023-06-24T15:27:54;25.00;77.70
55213;DHT22;41083;52.932;6.674;2023-06-24T15:30:20;25.00;77.80
55213;DHT22;41083;52.932;6.674;2023-06-24T15:32:45;24.90;77.80
55213;DHT22;41083;52.932;6.674;2023-06-24T15:35:12;25.00;77.90
55213;DHT22;41083;52.932;6.674;2023-06-24T15:37:38;25.00;78.20
55213;DHT22;41083;52.932;6.674;2023-06-24T15:40:04;25.10;78.30
55213;DHT22;41083;52.932;6.674;2023-06-24T15:42:29;25.10;78.00
55213;DHT22;41083;52.932;6.674;2023-06-24T15:44:55;25.10;77.80
55213;DHT22;41083;52.932;6.674;2023-06-24T15:47:21;25.10;77.70